»·PEaware :: GTI492 KPHX-KSAN

GTI492 :: KPHX-KSAN

FLIGHT INFORMATION

Flight Status: Arrived
Operator:
Atlas Air
More flights by this operator :: More flights under this callsign
Pilot: Mike C. (16705)
Aircraft: BOEING 767-300
(B763)
More flights by this aircraft type
Origin: KPHX Phoenix Sky Harbor Intl
United States
Destination: KSAN San Diego Intl-Lindbergh
United States
More flights between these airports :: More routes between these airports
Route: FYRBD1 MOHAK J2 HOGGZ LUCKI1
File this flight plan on PilotEdge
Remarks: RMK / SIMBRIEF
Altitude:
(Current/Filed)
34,000ft
Speed:
(Current/Filed)
454kts
Departed: 02-Feb-20 05:29 PM
Arrived: 02-Feb-20 06:17 PM
Distance/Time
Traveled:
263nm/0:47
Distance/Time
To Go:
Arrived

Flight Plot

Page will automatically refresh every two minutes.

Flight plan parsing failed; only flown route is shown


Map Options




Map Legend


Flown Route
Filed Route
Departure Airport
Arrival Airport
Navaid (VOR, NDB)
Fix

Horizontal Profiles

Position Reports

Time Latitude Longitude Heading Altitude Ground
Speed
02-Feb-20 16:57 33.434116 -112.025200 359 1145ft 0kts
02-Feb-20 16:58 33.434116 -112.025200 359 1145ft 0kts
02-Feb-20 16:59 33.434116 -112.025200 359 1145ft 0kts
02-Feb-20 17:00 33.434116 -112.025200 359 1145ft 0kts
02-Feb-20 17:01 33.434116 -112.025200 359 1145ft 0kts
02-Feb-20 17:02 33.434116 -112.025200 359 1145ft 0kts
02-Feb-20 17:03 33.434116 -112.025200 359 1145ft 0kts
02-Feb-20 17:04 33.434116 -112.025200 359 1145ft 0kts
02-Feb-20 17:05 33.434116 -112.025200 359 1145ft 0kts
02-Feb-20 17:06 33.434116 -112.025200 359 1145ft 0kts
02-Feb-20 17:07 33.434116 -112.025200 359 1145ft 0kts
02-Feb-20 17:08 33.434116 -112.025200 359 1145ft 0kts
02-Feb-20 17:09 33.434116 -112.025200 359 1145ft 0kts
02-Feb-20 17:10 33.434116 -112.025200 359 1145ft 0kts
02-Feb-20 17:11 33.433995 -112.025209 13 1145ft 2kts
02-Feb-20 17:12 33.433580 -112.025684 76 1145ft 2kts
02-Feb-20 17:13 33.433566 -112.026144 89 1145ft 0kts
02-Feb-20 17:14 33.433566 -112.026144 89 1145ft 0kts
02-Feb-20 17:15 33.433566 -112.026144 89 1145ft 0kts
02-Feb-20 17:16 33.433566 -112.026144 89 1145ft 0kts
02-Feb-20 17:17 33.433411 -112.025291 124 1145ft 7kts
02-Feb-20 17:18 33.432892 -112.022431 89 1145ft 11kts
02-Feb-20 17:19 33.432892 -112.018197 90 1145ft 13kts
02-Feb-20 17:20 33.432881 -112.013298 90 1145ft 14kts
02-Feb-20 17:22 33.432889 -112.008563 90 1145ft 13kts
02-Feb-20 17:23 33.432850 -112.004066 90 1145ft 13kts
02-Feb-20 17:24 33.432810 -111.999583 90 1145ft 13kts
02-Feb-20 17:25 33.432831 -111.995086 89 1145ft 13kts
02-Feb-20 17:26 33.432038 -111.992747 217 1145ft 1kts
02-Feb-20 17:27 33.431733 -111.993037 219 1145ft 4kts
02-Feb-20 17:28 33.431005 -111.995474 269 1145ft 39kts
02-Feb-20 17:29 33.431160 -112.040594 268 2206ft 168kts
02-Feb-20 17:30 33.420501 -112.101956 247 2676ft 235kts
02-Feb-20 17:31 33.389152 -112.178555 236 6326ft 231kts
02-Feb-20 17:32 33.327314 -112.179491 143 7107ft 276kts
02-Feb-20 17:33 33.254948 -112.162561 212 7906ft 279kts
02-Feb-20 17:34 33.209496 -112.239445 236 10288ft 296kts
02-Feb-20 17:35 33.157272 -112.330108 234 11871ft 356kts
02-Feb-20 17:36 33.099634 -112.429191 234 14765ft 369kts
02-Feb-20 17:37 33.040048 -112.531313 235 17480ft 381kts
02-Feb-20 17:38 32.978652 -112.636145 235 19970ft 392kts
02-Feb-20 17:39 32.945013 -112.760199 260 22165ft 406kts
02-Feb-20 17:39 32.929746 -112.872760 260 23930ft 417kts
02-Feb-20 17:41 32.907627 -113.035324 260 26203ft 432kts
02-Feb-20 17:42 32.887939 -113.178596 260 28020ft 444kts
02-Feb-20 17:42 32.870981 -113.301047 260 29434ft 454kts
02-Feb-20 17:43 32.849974 -113.451486 260 31142ft 462kts
02-Feb-20 17:45 32.825311 -113.626430 260 33312ft 455kts
02-Feb-20 17:45 32.807952 -113.748541 259 34005ft 452kts
02-Feb-20 17:46 32.786882 -113.895648 259 34009ft 451kts
02-Feb-20 17:47 32.775334 -114.043775 269 34008ft 452kts
02-Feb-20 17:48 32.779865 -114.193397 272 34009ft 451kts
02-Feb-20 17:49 32.785783 -114.343280 272 34009ft 451kts
02-Feb-20 17:50 32.815669 -114.487766 288 34009ft 452kts
02-Feb-20 17:51 32.854376 -114.629477 288 34010ft 450kts
02-Feb-20 17:52 32.877674 -114.774440 268 33565ft 451kts
02-Feb-20 17:53 32.874971 -114.921838 268 31617ft 441kts
02-Feb-20 17:54 32.871643 -115.067695 268 29673ft 434kts
02-Feb-20 17:55 32.868212 -115.208976 268 27779ft 420kts
02-Feb-20 17:56 32.863697 -115.346143 262 25931ft 407kts
02-Feb-20 17:57 32.845779 -115.477275 260 24128ft 396kts
02-Feb-20 17:58 32.825263 -115.604667 259 22361ft 385kts
02-Feb-20 17:59 32.805861 -115.722901 258 20721ft 376kts
02-Feb-20 18:00 32.786031 -115.843535 260 19053ft 366kts
02-Feb-20 18:01 32.776616 -115.963285 264 17194ft 359kts
02-Feb-20 18:02 32.767766 -116.080718 264 15316ft 353kts
02-Feb-20 18:03 32.758918 -116.196733 265 13400ft 350kts
02-Feb-20 18:04 32.750042 -116.311783 265 11762ft 339kts
02-Feb-20 18:05 32.741504 -116.421635 265 10417ft 327kts
02-Feb-20 18:06 32.733109 -116.523546 264 9686ft 299kts
02-Feb-20 18:07 32.723798 -116.619914 264 8614ft 287kts
02-Feb-20 18:08 32.715811 -116.712895 265 7430ft 281kts
02-Feb-20 18:09 32.708895 -116.800493 265 6922ft 247kts
02-Feb-20 18:10 32.689148 -116.876779 250 5399ft 238kts
02-Feb-20 18:11 32.673580 -116.947889 289 4036ft 187kts
02-Feb-20 18:12 32.688347 -117.003780 287 3343ft 178kts
02-Feb-20 18:13 32.702008 -117.059913 287 2305ft 174kts
02-Feb-20 18:14 32.714850 -117.111675 290 1072ft 152kts
02-Feb-20 18:15 32.725814 -117.158199 288 415ft 147kts
02-Feb-20 18:16 32.735325 -117.196715 272 28ft 31kts
02-Feb-20 18:17 32.734660 -117.198880 184 28ft 0kts
02-Feb-20 18:18 32.734305 -117.198178 93 28ft 8kts
02-Feb-20 18:19 32.733500 -117.193587 105 28ft 17kts
02-Feb-20 18:20 32.734561 -117.189002 106 28ft 17kts
02-Feb-20 18:21 32.733915 -117.183916 22 28ft 12kts
02-Feb-20 18:22 32.735176 -117.183665 53 28ft 0kts
02-Feb-20 18:23 32.735176 -117.183665 53 28ft 0kts

Navigation Log

Ident Type
Flight plan parsing failed, navigation log unavailable